KHB198 UNBB-USTJ
Flight info
| Callsign | KHB198 |
|---|---|
| Flight time | 1h 35m |
| Altitude | 36000 |
| Route | GIRUR A489 ML R814 GAFEN |
| Aircraft | T154/M-SDGRWY/S |
Departure
| Time | 2026-04-27 04:42 |
|---|---|
| Airport | Barnaul Gherman Titov International Airport (UNBB) |
Arrival
| Time | 2026-04-27 06:17 |
|---|---|
| Airport | Tobolsk Remezov Airport (USTJ) |
| Time | Latitude | Longitude | Altitude | Speed | Heading |
|---|---|---|---|---|---|
| 2026-04-27 03:54 | 53.36372 | 83.55154 | 848 ft | 0 kts | 68° |
| 2026-04-27 04:36 | 53.36376 | 83.55167 | 847 ft | 3 kts | 68° |
| 2026-04-27 04:36 | 53.36387 | 83.55206 | 847 ft | 4 kts | 50° |
| 2026-04-27 04:36 | 53.36414 | 83.55225 | 847 ft | 4 kts | 352° |
| 2026-04-27 04:36 | 53.36443 | 83.55226 | 847 ft | 4 kts | 36° |
| 2026-04-27 04:37 | 53.36462 | 83.55275 | 847 ft | 5 kts | 62° |
| 2026-04-27 04:37 | 53.36481 | 83.55342 | 847 ft | 6 kts | 66° |
| 2026-04-27 04:37 | 53.36501 | 83.55420 | 847 ft | 7 kts | 67° |
| 2026-04-27 04:37 | 53.36525 | 83.55511 | 847 ft | 9 kts | 67° |
| 2026-04-27 04:38 | 53.36550 | 83.55615 | 847 ft | 10 kts | 68° |
| 2026-04-27 04:38 | 53.36578 | 83.55729 | 847 ft | 11 kts | 69° |
| 2026-04-27 04:38 | 53.36608 | 83.55856 | 847 ft | 12 kts | 69° |
| 2026-04-27 04:38 | 53.36642 | 83.55975 | 847 ft | 10 kts | 39° |
| 2026-04-27 04:39 | 53.36718 | 83.55991 | 847 ft | 11 kts | 347° |
| 2026-04-27 04:39 | 53.36787 | 83.55946 | 847 ft | 7 kts | 333° |
| 2026-04-27 04:39 | 53.36800 | 83.55873 | 847 ft | 7 kts | 252° |
| 2026-04-27 04:39 | 53.36790 | 83.55833 | 847 ft | 0 kts | 247° |
| 2026-04-27 04:40 | 53.36732 | 83.55596 | 848 ft | 57 kts | 248° |
| 2026-04-27 04:41 | 53.36490 | 83.54621 | 848 ft | 121 kts | 248° |
| 2026-04-27 04:41 | 53.36113 | 83.53083 | 904 ft | 159 kts | 249° |
| 2026-04-27 04:41 | 53.35699 | 83.51327 | 1225 ft | 166 kts | 250° |
| 2026-04-27 04:41 | 53.35270 | 83.49455 | 1431 ft | 180 kts | 250° |
| 2026-04-27 04:42 | 53.34864 | 83.47379 | 1688 ft | 198 kts | 261° |
| 2026-04-27 04:42 | 53.34988 | 83.45132 | 2332 ft | 198 kts | 291° |
| 2026-04-27 04:42 | 53.35542 | 83.43059 | 3053 ft | 195 kts | 295° |
| 2026-04-27 04:42 | 53.36089 | 83.40868 | 3216 ft | 228 kts | 291° |
| 2026-04-27 04:43 | 53.36633 | 83.38213 | 3791 ft | 245 kts | 287° |
| 2026-04-27 04:43 | 53.37094 | 83.35548 | 4850 ft | 242 kts | 285° |
| 2026-04-27 04:43 | 53.37529 | 83.32812 | 5703 ft | 248 kts | 284° |
| 2026-04-27 04:43 | 53.37970 | 83.30082 | 6732 ft | 247 kts | 284° |
| 2026-04-27 04:44 | 53.38432 | 83.27334 | 7656 ft | 249 kts | 284° |
| 2026-04-27 04:44 | 53.38901 | 83.24577 | 8628 ft | 249 kts | 283° |
| 2026-04-27 04:44 | 53.39364 | 83.21838 | 9557 ft | 249 kts | 282° |
| 2026-04-27 04:44 | 53.39836 | 83.19051 | 10467 ft | 250 kts | 281° |
| 2026-04-27 04:45 | 53.40311 | 83.16243 | 11182 ft | 258 kts | 281° |
| 2026-04-27 04:45 | 53.40802 | 83.13338 | 11844 ft | 268 kts | 281° |
| 2026-04-27 04:45 | 53.41323 | 83.10262 | 12412 ft | 281 kts | 281° |
| 2026-04-27 04:45 | 53.41859 | 83.07091 | 12973 ft | 293 kts | 281° |
| 2026-04-27 04:46 | 53.42425 | 83.03744 | 13470 ft | 306 kts | 281° |
| 2026-04-27 04:46 | 53.43012 | 83.00272 | 13959 ft | 318 kts | 281° |
| 2026-04-27 04:46 | 53.43613 | 82.96729 | 14791 ft | 319 kts | 281° |
| 2026-04-27 04:46 | 53.44219 | 82.93152 | 15560 ft | 322 kts | 280° |
| 2026-04-27 04:47 | 53.44832 | 82.89511 | 16320 ft | 325 kts | 280° |
| 2026-04-27 04:47 | 53.45436 | 82.85902 | 17071 ft | 327 kts | 280° |
| 2026-04-27 04:47 | 53.46052 | 82.82225 | 17808 ft | 330 kts | 279° |
| 2026-04-27 04:47 | 53.46668 | 82.78535 | 18503 ft | 333 kts | 279° |
| 2026-04-27 04:48 | 53.47286 | 82.74825 | 19227 ft | 336 kts | 279° |
| 2026-04-27 04:48 | 53.47914 | 82.71049 | 19956 ft | 338 kts | 279° |
| 2026-04-27 04:48 | 53.48542 | 82.67256 | 20603 ft | 342 kts | 279° |
| 2026-04-27 04:48 | 53.49175 | 82.63440 | 21311 ft | 344 kts | 279° |
| 2026-04-27 04:49 | 53.49814 | 82.59566 | 21982 ft | 347 kts | 279° |
| 2026-04-27 04:49 | 53.50458 | 82.55658 | 22663 ft | 350 kts | 279° |
| 2026-04-27 04:49 | 53.51108 | 82.51701 | 23300 ft | 353 kts | 279° |
| 2026-04-27 04:49 | 53.51750 | 82.47785 | 23949 ft | 356 kts | 279° |
| 2026-04-27 04:50 | 53.52412 | 82.43746 | 24613 ft | 358 kts | 279° |
| 2026-04-27 04:50 | 53.53069 | 82.39715 | 25187 ft | 362 kts | 279° |
| 2026-04-27 04:50 | 53.53731 | 82.35647 | 25747 ft | 367 kts | 279° |
| 2026-04-27 04:50 | 53.54407 | 82.31470 | 26243 ft | 373 kts | 279° |
| 2026-04-27 04:51 | 53.55081 | 82.27309 | 26870 ft | 375 kts | 279° |
| 2026-04-27 04:51 | 53.55782 | 82.23050 | 27448 ft | 380 kts | 281° |
| 2026-04-27 04:51 | 53.56851 | 82.18948 | 27955 ft | 394 kts | 292° |
| 2026-04-27 04:51 | 53.58245 | 82.14921 | 28600 ft | 397 kts | 293° |
| 2026-04-27 04:52 | 53.59612 | 82.10881 | 29138 ft | 400 kts | 291° |
| 2026-04-27 04:52 | 53.60953 | 82.06781 | 29681 ft | 403 kts | 291° |
| 2026-04-27 04:52 | 53.62289 | 82.02675 | 30177 ft | 408 kts | 291° |
| 2026-04-27 04:52 | 53.63648 | 81.98494 | 30721 ft | 410 kts | 291° |
| 2026-04-27 04:53 | 53.65025 | 81.94250 | 31206 ft | 414 kts | 291° |
| 2026-04-27 04:53 | 53.66402 | 81.89996 | 31665 ft | 417 kts | 291° |
| 2026-04-27 04:53 | 53.67779 | 81.85732 | 32116 ft | 420 kts | 291° |
| 2026-04-27 04:53 | 53.69178 | 81.81391 | 32557 ft | 424 kts | 291° |
| 2026-04-27 04:54 | 53.70581 | 81.77033 | 33004 ft | 426 kts | 291° |
| 2026-04-27 04:54 | 53.72006 | 81.72597 | 33445 ft | 429 kts | 291° |
| 2026-04-27 04:54 | 53.73197 | 81.68883 | 33765 ft | 432 kts | 292° |
| 2026-04-27 04:55 | 53.75126 | 81.62861 | 34329 ft | 434 kts | 291° |
| 2026-04-27 04:55 | 53.76566 | 81.58347 | 34573 ft | 439 kts | 292° |
| 2026-04-27 04:55 | 53.77994 | 81.53865 | 34878 ft | 440 kts | 292° |
| 2026-04-27 04:56 | 53.79446 | 81.49308 | 35165 ft | 443 kts | 292° |
| 2026-04-27 04:56 | 53.80913 | 81.44681 | 35402 ft | 446 kts | 292° |
| 2026-04-27 04:56 | 53.82371 | 81.40063 | 35645 ft | 448 kts | 292° |
| 2026-04-27 04:56 | 53.83841 | 81.35401 | 35679 ft | 455 kts | 292° |
| 2026-04-27 04:57 | 53.85323 | 81.30692 | 35875 ft | 452 kts | 292° |
| 2026-04-27 04:57 | 53.86773 | 81.26074 | 35989 ft | 452 kts | 292° |
| 2026-04-27 04:57 | 53.88258 | 81.21335 | 36100 ft | 451 kts | 292° |
| 2026-04-27 04:57 | 53.89714 | 81.16680 | 36191 ft | 451 kts | 292° |
| 2026-04-27 04:58 | 53.92650 | 81.07269 | 36188 ft | 453 kts | 292° |
| 2026-04-27 04:58 | 53.95575 | 80.97866 | 36160 ft | 452 kts | 292° |
| 2026-04-27 04:59 | 53.98477 | 80.88500 | 36173 ft | 451 kts | 292° |
| 2026-04-27 04:59 | 54.01371 | 80.79125 | 36173 ft | 450 kts | 292° |
| 2026-04-27 05:00 | 54.04270 | 80.69699 | 36162 ft | 450 kts | 292° |
| 2026-04-27 05:00 | 54.07144 | 80.60329 | 36169 ft | 448 kts | 292° |
| 2026-04-27 05:01 | 54.10004 | 80.50966 | 36168 ft | 448 kts | 292° |
| 2026-04-27 05:01 | 54.12847 | 80.41724 | 36159 ft | 446 kts | 292° |
| 2026-04-27 05:02 | 54.15682 | 80.32412 | 36151 ft | 445 kts | 291° |
| 2026-04-27 05:03 | 54.19903 | 80.18391 | 36158 ft | 444 kts | 291° |
| 2026-04-27 05:03 | 54.22704 | 80.09056 | 36177 ft | 443 kts | 291° |
| 2026-04-27 05:04 | 54.25505 | 79.99686 | 36186 ft | 441 kts | 291° |
| 2026-04-27 05:04 | 54.28281 | 79.90362 | 36179 ft | 441 kts | 291° |
| 2026-04-27 05:05 | 54.31023 | 79.81118 | 36196 ft | 441 kts | 291° |
| 2026-04-27 05:05 | 54.33797 | 79.71725 | 36197 ft | 442 kts | 291° |
| 2026-04-27 05:06 | 54.36540 | 79.62396 | 36207 ft | 442 kts | 292° |
| 2026-04-27 05:06 | 54.39296 | 79.53001 | 36206 ft | 443 kts | 292° |
| 2026-04-27 05:07 | 54.42038 | 79.43603 | 36198 ft | 443 kts | 292° |
| 2026-04-27 05:07 | 54.44788 | 79.34147 | 36213 ft | 443 kts | 291° |
| 2026-04-27 05:08 | 54.47522 | 79.24674 | 36182 ft | 444 kts | 291° |
| 2026-04-27 05:08 | 54.50246 | 79.15226 | 36180 ft | 444 kts | 291° |
| 2026-04-27 05:09 | 54.52973 | 79.05730 | 36216 ft | 444 kts | 291° |
| 2026-04-27 05:09 | 54.55693 | 78.96222 | 36203 ft | 444 kts | 291° |
| 2026-04-27 05:10 | 54.58408 | 78.86692 | 36214 ft | 444 kts | 291° |
| 2026-04-27 05:10 | 54.61094 | 78.77224 | 36207 ft | 444 kts | 291° |
| 2026-04-27 05:11 | 54.63797 | 78.67662 | 36212 ft | 443 kts | 291° |
| 2026-04-27 05:11 | 54.66475 | 78.58147 | 36220 ft | 443 kts | 291° |
| 2026-04-27 05:12 | 54.69138 | 78.48644 | 36228 ft | 442 kts | 291° |
| 2026-04-27 05:12 | 54.71789 | 78.39146 | 36214 ft | 442 kts | 291° |
| 2026-04-27 05:13 | 54.74450 | 78.29565 | 36193 ft | 442 kts | 291° |
| 2026-04-27 05:13 | 54.77088 | 78.20008 | 36200 ft | 442 kts | 291° |
| 2026-04-27 05:14 | 54.79709 | 78.10500 | 36218 ft | 441 kts | 291° |
| 2026-04-27 05:14 | 54.82346 | 78.00895 | 36223 ft | 441 kts | 291° |
| 2026-04-27 05:15 | 54.84949 | 77.91377 | 36232 ft | 441 kts | 291° |
| 2026-04-27 05:15 | 54.87558 | 77.81795 | 36235 ft | 442 kts | 291° |
| 2026-04-27 05:16 | 54.90180 | 77.72122 | 36233 ft | 442 kts | 291° |
| 2026-04-27 05:16 | 54.92812 | 77.62473 | 36146 ft | 446 kts | 295° |
| 2026-04-27 05:17 | 54.96232 | 77.53501 | 36166 ft | 450 kts | 301° |
| 2026-04-27 05:17 | 54.99746 | 77.44506 | 36175 ft | 449 kts | 300° |
| 2026-04-27 05:18 | 55.03193 | 77.35532 | 36173 ft | 449 kts | 300° |
| 2026-04-27 05:18 | 55.06638 | 77.26498 | 36162 ft | 450 kts | 299° |
| 2026-04-27 05:19 | 55.10081 | 77.17446 | 36187 ft | 449 kts | 299° |
| 2026-04-27 05:19 | 55.13553 | 77.08380 | 36166 ft | 450 kts | 300° |
| 2026-04-27 05:20 | 55.17000 | 76.99299 | 36179 ft | 449 kts | 299° |
| 2026-04-27 05:20 | 55.20413 | 76.90242 | 36178 ft | 449 kts | 299° |
| 2026-04-27 05:21 | 55.23814 | 76.81184 | 36199 ft | 449 kts | 299° |
| 2026-04-27 05:21 | 55.27228 | 76.72052 | 36191 ft | 448 kts | 300° |
| 2026-04-27 05:22 | 55.30645 | 76.62912 | 36195 ft | 448 kts | 300° |
| 2026-04-27 05:22 | 55.34041 | 76.53790 | 36190 ft | 448 kts | 300° |
| 2026-04-27 05:23 | 55.37422 | 76.44677 | 36184 ft | 448 kts | 300° |
| 2026-04-27 05:23 | 55.40810 | 76.35506 | 36199 ft | 448 kts | 300° |
| 2026-04-27 05:24 | 55.44165 | 76.26368 | 36172 ft | 448 kts | 299° |
| 2026-04-27 05:24 | 55.47532 | 76.17175 | 36178 ft | 448 kts | 299° |
| 2026-04-27 05:25 | 55.50869 | 76.07941 | 36193 ft | 447 kts | 298° |
| 2026-04-27 05:25 | 55.54065 | 75.98676 | 36194 ft | 447 kts | 298° |
| 2026-04-27 05:26 | 55.57312 | 75.89289 | 36196 ft | 447 kts | 298° |
| 2026-04-27 05:26 | 55.60522 | 75.79983 | 36203 ft | 447 kts | 298° |
| 2026-04-27 05:27 | 55.63751 | 75.70589 | 36190 ft | 447 kts | 298° |
| 2026-04-27 05:27 | 55.66962 | 75.61213 | 36188 ft | 447 kts | 298° |
| 2026-04-27 05:28 | 55.70147 | 75.51887 | 36191 ft | 446 kts | 298° |
| 2026-04-27 05:28 | 55.73337 | 75.42513 | 36188 ft | 446 kts | 298° |
| 2026-04-27 05:29 | 55.76522 | 75.33112 | 36159 ft | 446 kts | 297° |
| 2026-04-27 05:29 | 55.79691 | 75.23695 | 36156 ft | 446 kts | 298° |
| 2026-04-27 05:30 | 55.82866 | 75.14248 | 36174 ft | 446 kts | 297° |
| 2026-04-27 05:30 | 55.86031 | 75.04800 | 36180 ft | 445 kts | 298° |
| 2026-04-27 05:31 | 55.89173 | 74.95380 | 36179 ft | 445 kts | 298° |
| 2026-04-27 05:31 | 55.92321 | 74.85910 | 36180 ft | 445 kts | 298° |
| 2026-04-27 05:32 | 55.95447 | 74.76467 | 36184 ft | 445 kts | 298° |
| 2026-04-27 05:32 | 55.98568 | 74.67004 | 36176 ft | 445 kts | 298° |
| 2026-04-27 05:33 | 56.01695 | 74.57484 | 36185 ft | 445 kts | 298° |
| 2026-04-27 05:33 | 56.04792 | 74.48019 | 36184 ft | 444 kts | 298° |
| 2026-04-27 05:34 | 56.07887 | 74.38522 | 36189 ft | 444 kts | 298° |
| 2026-04-27 05:34 | 56.10986 | 74.28970 | 36140 ft | 446 kts | 297° |
| 2026-04-27 05:35 | 56.14100 | 74.19421 | 36158 ft | 445 kts | 297° |
| 2026-04-27 05:35 | 56.17185 | 74.09858 | 36183 ft | 444 kts | 297° |
| 2026-04-27 05:36 | 56.20245 | 74.00320 | 36179 ft | 444 kts | 297° |
| 2026-04-27 05:36 | 56.23343 | 73.90786 | 36184 ft | 444 kts | 301° |
| 2026-04-27 05:37 | 56.26899 | 73.81679 | 36183 ft | 445 kts | 302° |
| 2026-04-27 05:37 | 56.30412 | 73.72571 | 36190 ft | 444 kts | 302° |
| 2026-04-27 05:38 | 56.33881 | 73.63484 | 36190 ft | 444 kts | 302° |
| 2026-04-27 05:38 | 56.37360 | 73.54326 | 36183 ft | 444 kts | 302° |
| 2026-04-27 05:39 | 56.40813 | 73.45203 | 36196 ft | 444 kts | 302° |
| 2026-04-27 05:39 | 56.44282 | 73.35998 | 36195 ft | 443 kts | 302° |
| 2026-04-27 05:40 | 56.47726 | 73.26805 | 36177 ft | 444 kts | 301° |
| 2026-04-27 05:40 | 56.51172 | 73.17581 | 36184 ft | 444 kts | 301° |
| 2026-04-27 05:41 | 56.54610 | 73.08352 | 36194 ft | 444 kts | 301° |
| 2026-04-27 05:41 | 56.58030 | 72.99143 | 36195 ft | 443 kts | 301° |
| 2026-04-27 05:42 | 56.61460 | 72.89868 | 36195 ft | 443 kts | 301° |
| 2026-04-27 05:42 | 56.64874 | 72.80604 | 36199 ft | 443 kts | 301° |
| 2026-04-27 05:43 | 56.68277 | 72.71333 | 36193 ft | 443 kts | 301° |
| 2026-04-27 05:43 | 56.71687 | 72.62006 | 36168 ft | 444 kts | 301° |
| 2026-04-27 05:44 | 56.75090 | 72.52664 | 36091 ft | 445 kts | 301° |
| 2026-04-27 05:44 | 56.78484 | 72.43310 | 36111 ft | 445 kts | 301° |
| 2026-04-27 05:45 | 56.81861 | 72.33967 | 36118 ft | 444 kts | 301° |
| 2026-04-27 05:45 | 56.85235 | 72.24564 | 36102 ft | 444 kts | 301° |
| 2026-04-27 05:46 | 56.88604 | 72.15164 | 36111 ft | 444 kts | 301° |
| 2026-04-27 05:46 | 56.91980 | 72.05711 | 36111 ft | 445 kts | 301° |
| 2026-04-27 05:47 | 56.95348 | 71.96246 | 36117 ft | 444 kts | 301° |
| 2026-04-27 05:47 | 56.98700 | 71.86791 | 36108 ft | 444 kts | 301° |
| 2026-04-27 05:48 | 57.02044 | 71.77319 | 35983 ft | 445 kts | 301° |
| 2026-04-27 05:48 | 57.03701 | 71.72613 | 35742 ft | 439 kts | 301° |
| 2026-04-27 05:48 | 57.05339 | 71.67949 | 35387 ft | 437 kts | 301° |
| 2026-04-27 05:48 | 57.06956 | 71.63339 | 35147 ft | 432 kts | 301° |
| 2026-04-27 05:49 | 57.08582 | 71.58692 | 34843 ft | 428 kts | 301° |
| 2026-04-27 05:49 | 57.10172 | 71.54139 | 34547 ft | 425 kts | 301° |
| 2026-04-27 05:49 | 57.11768 | 71.49603 | 34210 ft | 423 kts | 301° |
| 2026-04-27 05:49 | 57.13360 | 71.45081 | 33924 ft | 419 kts | 301° |
| 2026-04-27 05:50 | 57.14917 | 71.40622 | 33636 ft | 416 kts | 301° |
| 2026-04-27 05:50 | 57.16445 | 71.36223 | 33373 ft | 411 kts | 301° |
| 2026-04-27 05:50 | 57.17971 | 71.31808 | 33142 ft | 408 kts | 300° |
| 2026-04-27 05:50 | 57.19489 | 71.27397 | 32904 ft | 405 kts | 300° |
| 2026-04-27 05:51 | 57.20982 | 71.23058 | 32691 ft | 401 kts | 300° |
| 2026-04-27 05:51 | 57.22469 | 71.18733 | 32425 ft | 398 kts | 300° |
| 2026-04-27 05:51 | 57.23929 | 71.14481 | 32192 ft | 395 kts | 301° |
| 2026-04-27 05:51 | 57.25390 | 71.10220 | 31948 ft | 391 kts | 301° |
| 2026-04-27 05:52 | 57.26814 | 71.06059 | 31735 ft | 388 kts | 301° |
| 2026-04-27 05:52 | 57.28245 | 71.01872 | 31511 ft | 385 kts | 301° |
| 2026-04-27 05:52 | 57.29657 | 70.97731 | 31289 ft | 381 kts | 301° |
| 2026-04-27 05:52 | 57.31076 | 70.93565 | 31077 ft | 378 kts | 301° |
| 2026-04-27 05:53 | 57.32453 | 70.89514 | 30872 ft | 375 kts | 301° |
| 2026-04-27 05:53 | 57.33825 | 70.85473 | 30616 ft | 373 kts | 301° |
| 2026-04-27 05:53 | 57.35201 | 70.81411 | 30332 ft | 369 kts | 301° |
| 2026-04-27 05:53 | 57.36531 | 70.77420 | 30046 ft | 366 kts | 300° |
| 2026-04-27 05:54 | 57.37829 | 70.73431 | 29730 ft | 364 kts | 300° |
| 2026-04-27 05:54 | 57.39126 | 70.69443 | 29426 ft | 361 kts | 301° |
| 2026-04-27 05:54 | 57.40412 | 70.65498 | 29140 ft | 358 kts | 301° |
| 2026-04-27 05:54 | 57.41689 | 70.61581 | 28804 ft | 356 kts | 301° |
| 2026-04-27 05:55 | 57.42965 | 70.57658 | 28483 ft | 354 kts | 301° |
| 2026-04-27 05:55 | 57.44226 | 70.53778 | 28115 ft | 352 kts | 301° |
| 2026-04-27 05:55 | 57.45472 | 70.49936 | 27779 ft | 348 kts | 301° |
| 2026-04-27 05:55 | 57.46723 | 70.46075 | 27381 ft | 346 kts | 301° |
| 2026-04-27 05:56 | 57.47943 | 70.42301 | 26995 ft | 344 kts | 301° |
| 2026-04-27 05:56 | 57.49172 | 70.38496 | 26580 ft | 341 kts | 301° |
| 2026-04-27 05:56 | 57.50377 | 70.34759 | 26171 ft | 339 kts | 300° |
| 2026-04-27 05:56 | 57.51577 | 70.31018 | 25692 ft | 339 kts | 300° |
| 2026-04-27 05:57 | 57.52774 | 70.27273 | 25310 ft | 335 kts | 300° |
| 2026-04-27 05:57 | 57.53959 | 70.23571 | 24888 ft | 332 kts | 300° |
| 2026-04-27 05:57 | 57.55125 | 70.19927 | 24460 ft | 329 kts | 300° |
| 2026-04-27 05:57 | 57.56282 | 70.16309 | 23825 ft | 323 kts | 300° |
| 2026-04-27 05:58 | 57.57427 | 70.12724 | 22948 ft | 324 kts | 301° |
| 2026-04-27 05:58 | 57.58549 | 70.09206 | 22161 ft | 321 kts | 300° |
| 2026-04-27 05:58 | 57.59689 | 70.05625 | 21390 ft | 318 kts | 301° |
| 2026-04-27 05:58 | 57.60793 | 70.02151 | 20590 ft | 316 kts | 301° |
| 2026-04-27 05:59 | 57.61900 | 69.98665 | 19759 ft | 314 kts | 301° |
| 2026-04-27 05:59 | 57.63002 | 69.95189 | 18958 ft | 312 kts | 301° |
| 2026-04-27 05:59 | 57.64086 | 69.91766 | 18124 ft | 310 kts | 301° |
| 2026-04-27 05:59 | 57.65167 | 69.88345 | 17297 ft | 308 kts | 301° |
| 2026-04-27 06:00 | 57.67311 | 69.81548 | 15632 ft | 304 kts | 300° |
| 2026-04-27 06:00 | 57.68381 | 69.78149 | 14799 ft | 301 kts | 300° |
| 2026-04-27 06:00 | 57.69419 | 69.74846 | 13971 ft | 300 kts | 300° |
| 2026-04-27 06:01 | 57.70460 | 69.71529 | 13163 ft | 297 kts | 300° |
| 2026-04-27 06:01 | 57.71507 | 69.68188 | 12506 ft | 297 kts | 300° |
| 2026-04-27 06:01 | 57.72535 | 69.64902 | 11974 ft | 294 kts | 300° |
| 2026-04-27 06:01 | 57.73564 | 69.61607 | 11401 ft | 293 kts | 300° |
| 2026-04-27 06:02 | 57.74587 | 69.58333 | 10839 ft | 291 kts | 300° |
| 2026-04-27 06:02 | 57.75573 | 69.55168 | 10563 ft | 280 kts | 300° |
| 2026-04-27 06:02 | 57.76528 | 69.52102 | 10395 ft | 266 kts | 300° |
| 2026-04-27 06:02 | 57.77436 | 69.49185 | 10239 ft | 254 kts | 300° |
| 2026-04-27 06:03 | 57.78318 | 69.46342 | 9886 ft | 251 kts | 299° |
| 2026-04-27 06:03 | 57.79182 | 69.43552 | 9450 ft | 250 kts | 299° |
| 2026-04-27 06:03 | 57.80045 | 69.40765 | 9074 ft | 247 kts | 299° |
| 2026-04-27 06:03 | 57.80907 | 69.37978 | 8648 ft | 246 kts | 299° |
| 2026-04-27 06:04 | 57.81753 | 69.35240 | 8238 ft | 245 kts | 299° |
| 2026-04-27 06:04 | 57.82603 | 69.32478 | 7815 ft | 244 kts | 298° |
| 2026-04-27 06:04 | 57.83438 | 69.29750 | 7416 ft | 242 kts | 298° |
| 2026-04-27 06:04 | 57.84271 | 69.27034 | 7026 ft | 240 kts | 298° |
| 2026-04-27 06:05 | 57.85102 | 69.24329 | 6636 ft | 238 kts | 298° |
| 2026-04-27 06:05 | 57.85923 | 69.21654 | 6224 ft | 237 kts | 298° |
| 2026-04-27 06:05 | 57.86735 | 69.19010 | 5801 ft | 237 kts | 298° |
| 2026-04-27 06:05 | 57.87564 | 69.16303 | 5427 ft | 239 kts | 298° |
| 2026-04-27 06:06 | 57.88387 | 69.13618 | 5189 ft | 237 kts | 298° |
| 2026-04-27 06:06 | 57.89197 | 69.10970 | 4916 ft | 236 kts | 298° |
| 2026-04-27 06:06 | 57.90017 | 69.08285 | 4633 ft | 236 kts | 298° |
| 2026-04-27 06:06 | 57.90885 | 69.05683 | 4347 ft | 237 kts | 309° |
| 2026-04-27 06:07 | 57.92109 | 69.03607 | 4113 ft | 237 kts | 320° |
| 2026-04-27 06:07 | 57.93430 | 69.01743 | 3819 ft | 239 kts | 321° |
| 2026-04-27 06:07 | 57.94742 | 68.99960 | 3734 ft | 231 kts | 322° |
| 2026-04-27 06:07 | 57.96036 | 68.98268 | 3612 ft | 221 kts | 322° |
| 2026-04-27 06:08 | 57.97272 | 68.96681 | 3423 ft | 216 kts | 323° |
| 2026-04-27 06:08 | 57.98519 | 68.95091 | 3370 ft | 215 kts | 323° |
| 2026-04-27 06:08 | 57.99733 | 68.93553 | 3379 ft | 210 kts | 323° |
| 2026-04-27 06:08 | 58.00923 | 68.92047 | 3428 ft | 196 kts | 323° |
| 2026-04-27 06:09 | 58.02023 | 68.90655 | 3418 ft | 189 kts | 323° |
| 2026-04-27 06:09 | 58.03101 | 68.89284 | 3461 ft | 186 kts | 322° |
| 2026-04-27 06:09 | 58.04171 | 68.87925 | 3462 ft | 185 kts | 322° |
| 2026-04-27 06:09 | 58.05209 | 68.86521 | 3441 ft | 184 kts | 313° |
| 2026-04-27 06:10 | 58.05857 | 68.84512 | 3395 ft | 174 kts | 283° |
| 2026-04-27 06:10 | 58.06011 | 68.82340 | 3021 ft | 171 kts | 271° |
| 2026-04-27 06:10 | 58.05951 | 68.80122 | 2577 ft | 172 kts | 265° |
| 2026-04-27 06:10 | 58.05822 | 68.77877 | 2246 ft | 172 kts | 265° |
| 2026-04-27 06:11 | 58.05734 | 68.75655 | 1913 ft | 171 kts | 268° |
| 2026-04-27 06:11 | 58.05710 | 68.73408 | 1597 ft | 170 kts | 271° |
| 2026-04-27 06:11 | 58.05731 | 68.71180 | 1451 ft | 171 kts | 272° |
| 2026-04-27 06:11 | 58.05762 | 68.68988 | 1421 ft | 166 kts | 272° |
| 2026-04-27 06:12 | 58.05780 | 68.66840 | 1430 ft | 158 kts | 271° |
| 2026-04-27 06:12 | 58.05785 | 68.64850 | 1468 ft | 148 kts | 271° |
| 2026-04-27 06:12 | 58.05790 | 68.62902 | 1444 ft | 148 kts | 271° |
| 2026-04-27 06:12 | 58.05796 | 68.60992 | 1450 ft | 143 kts | 271° |
| 2026-04-27 06:13 | 58.05801 | 68.59130 | 1451 ft | 142 kts | 271° |
| 2026-04-27 06:13 | 58.05808 | 68.57272 | 1461 ft | 142 kts | 271° |
| 2026-04-27 06:13 | 58.05814 | 68.55405 | 1467 ft | 142 kts | 271° |
| 2026-04-27 06:13 | 58.05818 | 68.53572 | 1520 ft | 131 kts | 271° |
| 2026-04-27 06:14 | 58.05821 | 68.51934 | 1501 ft | 125 kts | 271° |
| 2026-04-27 06:14 | 58.05827 | 68.50292 | 1488 ft | 124 kts | 271° |
| 2026-04-27 06:14 | 58.05831 | 68.48674 | 1452 ft | 125 kts | 271° |
| 2026-04-27 06:14 | 58.05832 | 68.47027 | 1296 ft | 127 kts | 271° |
| 2026-04-27 06:15 | 58.05835 | 68.45332 | 1110 ft | 130 kts | 271° |
| 2026-04-27 06:15 | 58.05839 | 68.43622 | 917 ft | 132 kts | 272° |
| 2026-04-27 06:15 | 58.05836 | 68.41869 | 726 ft | 133 kts | 271° |
| 2026-04-27 06:15 | 58.05849 | 68.40144 | 538 ft | 133 kts | 272° |
| 2026-04-27 06:16 | 58.05845 | 68.38399 | 349 ft | 132 kts | 271° |
| 2026-04-27 06:16 | 58.05846 | 68.36681 | 192 ft | 130 kts | 270° |
| 2026-04-27 06:16 | 58.05846 | 68.35193 | 182 ft | 95 kts | 269° |
| 2026-04-27 06:16 | 58.05843 | 68.34231 | 174 ft | 50 kts | 270° |
| 2026-04-27 06:17 | 58.05840 | 68.33724 | 167 ft | 30 kts | 269° |
| 2026-04-27 06:17 | 58.05841 | 68.33379 | 162 ft | 25 kts | 271° |
| 2026-04-27 06:17 | 58.05846 | 68.33146 | 159 ft | 13 kts | 272° |
| 2026-04-27 06:17 | 58.05846 | 68.32962 | 158 ft | 8 kts | 271° |
| 2026-04-27 06:18 | 58.05856 | 68.32899 | 158 ft | 5 kts | 308° |
| 2026-04-27 06:18 | 58.05886 | 68.32858 | 159 ft | 5 kts | 342° |
| 2026-04-27 06:18 | 58.05933 | 68.32852 | 159 ft | 7 kts | 358° |
| 2026-04-27 06:18 | 58.05957 | 68.32851 | 159 ft | 0 kts | 359° |
| 2026-04-27 06:21 | 58.05974 | 68.32852 | 159 ft | 5 kts | 1° |
| 2026-04-27 06:21 | 58.06009 | 68.32867 | 159 ft | 4 kts | 27° |
| 2026-04-27 06:21 | 58.06038 | 68.32884 | 159 ft | 3 kts | 7° |
| 2026-04-27 06:22 | 58.06062 | 68.32887 | 160 ft | 3 kts | 0° |
| 2026-04-27 06:22 | 58.06077 | 68.32887 | 160 ft | 1 kts | 0° |
| 2026-04-27 06:22 | 58.06082 | 68.32887 | 160 ft | 0 kts | 0° |
| 2026-04-27 06:22 | 58.06087 | 68.32887 | 160 ft | 0 kts | 0° |